Time;durP1;ratioP1;P1;durP2;ratioP2;P2;SDS_P1;SDS_P2;PMS_P1;PMS_P2;Temp;Humidity;BMP_temperature;BMP_pressure;BME280_temperature;BME280_humidity;BME280_pressure;Samples;Min_cycle;Max_cycle;Signal;HPM_P1;HPM_P2
2023/04/24 00:00:44;;;;;;;6.57;4.35;;;11.40;99.90;;;;;;5051692;28;20116;-58
2023/04/24 00:03:10;;;;;;;4.90;3.58;;;11.40;99.90;;;;;;5036663;28;20073;-58
2023/04/24 00:05:40;;;;;;;6.82;4.22;;;11.30;99.90;;;;;;5053095;28;20514;-58
2023/04/24 00:08:06;;;;;;;5.57;4.28;;;11.40;99.90;;;;;;5053198;28;20046;-57
2023/04/24 00:10:32;;;;;;;4.10;3.60;;;11.40;99.90;;;;;;5052970;28;20041;-57
2023/04/24 00:12:58;;;;;;;5.20;3.70;;;11.40;99.90;;;;;;5036193;28;20507;-57
2023/04/24 00:15:23;;;;;;;6.03;4.20;;;11.30;99.90;;;;;;5070747;28;20050;-58
2023/04/24 00:17:49;;;;;;;6.32;4.40;;;11.40;99.90;;;;;;5115888;28;20028;-58
2023/04/24 00:20:15;;;;;;;7.35;3.95;;;11.40;99.90;;;;;;5115873;28;20093;-58
2023/04/24 00:22:41;;;;;;;5.80;4.18;;;11.30;99.90;;;;;;5115867;28;20086;-58
2023/04/24 00:25:07;;;;;;;5.72;3.70;;;11.30;99.90;;;;;;5114523;28;20043;-58
2023/04/24 00:27:32;;;;;;;5.72;3.70;;;11.30;99.90;;;;;;5115946;28;20039;-58
2023/04/24 00:29:58;;;;;;;5.75;3.67;;;11.40;99.90;;;;;;5103985;28;20379;-59
2023/04/24 00:32:24;;;;;;;4.18;3.70;;;11.30;99.90;;;;;;5093886;28;20062;-58
2023/04/24 00:34:49;;;;;;;5.75;3.97;;;11.30;99.90;;;;;;5095168;28;20416;-59
2023/04/24 00:37:15;;;;;;;4.68;4.20;;;11.20;99.90;;;;;;5094810;28;20452;-58
2023/04/24 00:39:41;;;;;;;4.10;3.70;;;11.40;99.90;;;;;;5094908;28;20028;-58
2023/04/24 00:42:07;;;;;;;4.47;2.95;;;11.30;99.90;;;;;;5095227;28;20075;-58
2023/04/24 00:44:35;;;;;;;2.83;2.38;;;11.20;99.90;;;;;;5094817;28;20087;-58
2023/04/24 00:47:01;;;;;;;2.78;2.50;;;11.20;99.90;;;;;;5102515;28;20047;-58
2023/04/24 00:49:27;;;;;;;2.20;1.98;;;11.20;99.90;;;;;;5115066;28;20108;-58
2023/04/24 00:51:53;;;;;;;3.78;1.33;;;11.10;99.90;;;;;;5114885;28;20363;-58
2023/04/24 00:54:19;;;;;;;1.98;1.20;;;11.00;99.90;;;;;;5114839;28;20038;-59
2023/04/24 00:56:46;;;;;;;2.85;1.20;;;11.10;99.90;;;;;;5115302;28;20050;-58
2023/04/24 00:59:17;;;;;;;1.10;1.00;;;11.10;99.90;;;;;;5115093;28;20035;-59
2023/04/24 01:01:44;;;;;;;1.23;1.10;;;11.00;99.90;;;;;;5125557;27;20071;-58
2023/04/24 01:04:11;;;;;;;1.10;1.00;;;11.00;99.90;;;;;;5135381;27;20054;-59
2023/04/24 01:06:39;;;;;;;0.82;0.80;;;11.00;99.90;;;;;;5135570;27;20389;-58
2023/04/24 01:09:07;;;;;;;0.75;0.75;;;11.00;99.90;;;;;;5133935;27;20054;-59
2023/04/24 01:11:33;;;;;;;2.38;0.75;;;11.00;99.90;;;;;;5135567;27;20042;-59
2023/04/24 01:14:00;;;;;;;1.20;1.10;;;10.90;99.90;;;;;;5135387;27;20039;-58
2023/04/24 01:16:25;;;;;;;0.70;0.70;;;11.00;99.90;;;;;;5135297;27;20123;-58
2023/04/24 01:18:51;;;;;;;0.80;0.80;;;10.80;99.90;;;;;;5135203;27;20063;-58
2023/04/24 01:21:19;;;;;;;1.30;1.10;;;10.90;99.90;;;;;;5135029;27;20088;-58
2023/04/24 01:23:45;;;;;;;1.27;0.93;;;10.90;99.90;;;;;;5134562;27;20065;-58
2023/04/24 01:26:13;;;;;;;8.93;1.55;;;10.90;99.90;;;;;;5133880;27;20065;-59
2023/04/24 01:28:39;;;;;;;1.20;1.00;;;10.90;99.90;;;;;;5135372;27;20087;-58
2023/04/24 01:31:05;;;;;;;0.95;0.95;;;10.80;99.90;;;;;;5135502;27;20038;-58
2023/04/24 01:33:31;;;;;;;1.95;1.10;;;10.90;99.90;;;;;;5133271;27;20043;-58
2023/04/24 01:35:57;;;;;;;1.00;1.00;;;10.90;99.90;;;;;;5134004;27;20064;-58
2023/04/24 01:38:22;;;;;;;2.25;1.80;;;10.80;99.90;;;;;;5133690;27;20043;-58
2023/04/24 01:40:49;;;;;;;1.35;0.90;;;10.80;99.90;;;;;;5135011;27;20084;-58
2023/04/24 01:43:15;;;;;;;1.30;1.20;;;10.80;99.90;;;;;;5135098;27;20106;-58
2023/04/24 01:45:41;;;;;;;1.48;1.38;;;10.80;99.90;;;;;;5134912;27;20070;-57
2023/04/24 01:48:07;;;;;;;2.03;1.20;;;10.70;99.90;;;;;;5150410;27;20046;-58
2023/04/24 01:50:32;;;;;;;2.05;1.55;;;10.80;99.90;;;;;;5154803;27;20035;-57
2023/04/24 01:52:58;;;;;;;1.25;1.15;;;10.60;99.90;;;;;;5155063;27;20055;-58
2023/04/24 01:55:24;;;;;;;1.42;1.33;;;10.70;99.90;;;;;;5155234;27;20130;-58
2023/04/24 01:57:51;;;;;;;1.40;1.25;;;10.60;99.90;;;;;;5154881;27;20092;-58
2023/04/24 02:00:17;;;;;;;3.25;1.45;;;10.60;99.90;;;;;;5136349;27;20142;-58
2023/04/24 02:02:44;;;;;;;4.22;1.80;;;10.70;99.90;;;;;;5154766;27;20081;-57
2023/04/24 02:05:10;;;;;;;2.03;1.60;;;10.70;99.90;;;;;;5154828;27;20047;-58
2023/04/24 02:07:36;;;;;;;1.92;1.80;;;10.70;99.90;;;;;;5154550;27;20392;-58
2023/04/24 02:10:03;;;;;;;1.95;1.83;;;10.60;99.90;;;;;;5154317;27;20038;-57
2023/04/24 02:12:29;;;;;;;2.10;2.00;;;10.60;99.90;;;;;;5154084;27;20042;-58
2023/04/24 02:14:55;;;;;;;3.40;2.28;;;10.60;99.90;;;;;;5154546;27;20034;-57
2023/04/24 02:17:21;;;;;;;2.60;2.40;;;10.60;99.90;;;;;;5154177;27;20399;-57
2023/04/24 02:19:46;;;;;;;2.50;2.30;;;10.60;99.90;;;;;;5154170;27;20043;-57
2023/04/24 02:22:12;;;;;;;2.63;2.28;;;10.60;99.90;;;;;;5154366;27;20434;-57
2023/04/24 02:24:38;;;;;;;3.42;3.13;;;10.60;99.90;;;;;;5154436;27;20046;-57
2023/04/24 02:27:04;;;;;;;3.72;2.83;;;10.60;99.90;;;;;;5154188;27;20035;-57
2023/04/24 02:29:30;;;;;;;3.63;2.60;;;10.60;99.90;;;;;;5154283;27;20114;-58
2023/04/24 02:31:55;;;;;;;3.63;3.33;;;10.60;99.90;;;;;;5154320;27;20027;-57
2023/04/24 02:34:22;;;;;;;5.40;3.25;;;10.50;99.90;;;;;;5136363;27;20529;-57
2023/04/24 02:36:48;;;;;;;3.70;3.40;;;10.50;99.90;;;;;;5115259;27;20039;-58
2023/04/24 02:39:16;;;;;;;3.40;3.10;;;10.50;99.90;;;;;;5115093;27;20100;-57
2023/04/24 02:41:44;;;;;;;3.72;3.42;;;10.60;99.90;;;;;;5133271;27;20106;-58
2023/04/24 02:44:10;;;;;;;4.38;3.97;;;10.60;99.90;;;;;;5133518;27;20092;-58
2023/04/24 02:46:36;;;;;;;4.47;4.03;;;10.60;99.90;;;;;;5132282;27;20051;-59
2023/04/24 02:49:02;;;;;;;3.90;3.50;;;10.60;99.90;;;;;;5133584;27;20058;-58
2023/04/24 02:51:28;;;;;;;4.22;3.83;;;10.60;99.90;;;;;;5133443;28;20035;-58
2023/04/24 02:53:54;;;;;;;5.50;4.43;;;10.60;99.90;;;;;;5133105;27;20430;-57
2023/04/24 02:56:22;;;;;;;4.50;4.10;;;10.50;99.90;;;;;;5114611;28;20050;-57
2023/04/24 02:58:48;;;;;;;5.47;4.97;;;10.50;99.90;;;;;;5133049;27;20469;-58
2023/04/24 03:01:13;;;;;;;4.82;4.40;;;10.40;99.90;;;;;;5132937;27;20039;-58
2023/04/24 03:03:39;;;;;;;5.20;4.80;;;10.50;99.90;;;;;;5133504;28;20050;-58
2023/04/24 03:06:07;;;;;;;5.57;5.07;;;10.50;99.90;;;;;;5151703;27;20774;-58
2023/04/24 03:08:33;;;;;;;5.65;5.15;;;10.60;99.90;;;;;;5154256;27;20118;-58
2023/04/24 03:10:59;;;;;;;6.72;5.53;;;10.60;99.90;;;;;;5153749;27;20118;-59
2023/04/24 03:13:25;;;;;;;6.22;5.53;;;10.50;99.90;;;;;;5153876;27;20034;-57
2023/04/24 03:15:51;;;;;;;8.63;5.60;;;10.50;99.90;;;;;;5153623;27;20101;-58
2023/04/24 03:18:17;;;;;;;7.57;6.10;;;10.50;99.90;;;;;;5153847;27;20039;-58
2023/04/24 03:20:45;;;;;;;6.22;5.68;;;10.60;99.90;;;;;;5153911;27;20041;-57
2023/04/24 03:23:10;;;;;;;6.85;6.25;;;10.70;99.90;;;;;;5135102;27;20540;-58
2023/04/24 03:25:36;;;;;;;9.25;7.10;;;10.60;99.90;;;;;;5153673;27;20113;-58
2023/04/24 03:28:01;;;;;;;8.15;7.35;;;10.60;99.90;;;;;;5153517;27;20373;-57
2023/04/24 03:30:27;;;;;;;7.50;6.80;;;10.60;99.90;;;;;;5141052;27;20402;-58
2023/04/24 03:32:53;;;;;;;7.90;7.20;;;10.50;99.90;;;;;;5133199;28;20365;-58
2023/04/24 03:35:18;;;;;;;7.93;7.13;;;10.60;99.90;;;;;;5114863;28;20484;-58
2023/04/24 03:37:44;;;;;;;8.43;7.63;;;10.50;99.90;;;;;;5133133;27;20042;-58
2023/04/24 03:40:10;;;;;;;9.63;8.32;;;10.70;99.90;;;;;;5132864;28;20037;-57
2023/04/24 03:42:36;;;;;;;9.50;8.70;;;10.60;99.90;;;;;;5132905;28;20043;-58
2023/04/24 03:45:01;;;;;;;10.40;9.40;;;10.70;99.90;;;;;;5114554;28;20441;-57
2023/04/24 03:47:27;;;;;;;11.15;10.05;;;10.50;99.90;;;;;;5132488;27;20059;-57
2023/04/24 03:49:54;;;;;;;11.40;10.30;;;10.50;99.90;;;;;;5132888;28;20385;-58
2023/04/24 03:52:19;;;;;;;12.20;9.45;;;10.50;99.90;;;;;;5133015;28;20039;-58
2023/04/24 03:54:45;;;;;;;13.73;9.98;;;10.70;99.90;;;;;;5133105;28;20032;-57
2023/04/24 03:57:11;;;;;;;10.70;9.73;;;10.50;99.90;;;;;;5134353;27;20069;-57
2023/04/24 03:59:36;;;;;;;12.77;10.23;;;10.50;99.90;;;;;;5136434;27;20126;-58
2023/04/24 04:02:02;;;;;;;14.00;10.88;;;10.60;99.90;;;;;;5136218;27;20043;-57
2023/04/24 04:04:27;;;;;;;11.60;10.43;;;10.50;99.90;;;;;;5136482;27;20046;-58
2023/04/24 04:06:53;;;;;;;11.73;9.95;;;10.50;99.90;;;;;;5136726;27;20027;-57
2023/04/24 04:09:19;;;;;;;11.40;10.40;;;10.50;99.90;;;;;;5118248;27;20516;-57
2023/04/24 04:11:45;;;;;;;11.40;9.60;;;10.50;99.90;;;;;;5136298;27;20035;-58
2023/04/24 04:14:10;;;;;;;9.60;8.70;;;10.60;99.90;;;;;;5136535;27;20070;-58
2023/04/24 04:16:36;;;;;;;9.75;8.77;;;10.50;99.90;;;;;;5136343;27;20031;-57
2023/04/24 04:19:02;;;;;;;10.98;9.50;;;10.60;99.90;;;;;;5136354;27;20043;-58
2023/04/24 04:21:30;;;;;;;9.32;8.35;;;10.60;99.90;;;;;;5136036;27;20140;-57
2023/04/24 04:23:56;;;;;;;10.00;9.05;;;10.60;99.90;;;;;;5135998;27;20471;-57
2023/04/24 04:26:25;;;;;;;10.10;9.10;;;10.60;99.90;;;;;;5135947;27;20122;-57
2023/04/24 04:28:51;;;;;;;8.90;8.10;;;10.50;99.90;;;;;;5135532;27;20043;-57
2023/04/24 04:31:17;;;;;;;8.75;7.95;;;10.50;99.90;;;;;;5136024;27;20041;-57
2023/04/24 04:33:42;;;;;;;8.82;8.02;;;10.60;99.90;;;;;;5135832;27;20393;-58
2023/04/24 04:36:09;;;;;;;8.35;7.45;;;10.70;99.90;;;;;;5135874;27;20039;-58
2023/04/24 04:38:34;;;;;;;11.05;7.90;;;10.50;99.90;;;;;;5135977;27;20389;-58
2023/04/24 04:41:00;;;;;;;8.38;7.68;;;10.50;99.90;;;;;;5138624;27;20091;-58
2023/04/24 04:43:26;;;;;;;11.38;7.65;;;10.60;99.90;;;;;;5156556;27;20047;-58
2023/04/24 04:45:54;;;;;;;7.30;6.63;;;10.40;99.90;;;;;;5156565;27;20453;-58
2023/04/24 04:48:19;;;;;;;8.10;7.05;;;10.40;99.90;;;;;;5156094;27;20058;-57
2023/04/24 04:50:45;;;;;;;7.60;6.90;;;10.40;99.90;;;;;;5156450;27;20092;-58
2023/04/24 04:53:11;;;;;;;8.57;7.78;;;10.50;99.90;;;;;;5156205;27;20084;-58
2023/04/24 04:55:37;;;;;;;8.45;7.65;;;10.50;99.90;;;;;;5134056;27;20084;-57
2023/04/24 04:58:03;;;;;;;7.72;7.03;;;10.50;99.90;;;;;;5135619;27;20031;-57
2023/04/24 05:00:33;;;;;;;5.85;5.28;;;10.50;99.90;;;;;;5135410;27;20365;-57
2023/04/24 05:02:59;;;;;;;4.57;4.18;;;10.40;99.90;;;;;;5117113;27;20043;-57
2023/04/24 05:05:25;;;;;;;5.70;3.65;;;10.50;99.90;;;;;;5135202;27;20091;-58
2023/04/24 05:07:50;;;;;;;4.40;3.78;;;10.70;99.90;;;;;;5134366;27;20175;-58
2023/04/24 05:10:16;;;;;;;4.28;3.63;;;10.70;99.90;;;;;;5134544;27;20050;-58
2023/04/24 05:12:42;;;;;;;4.68;3.13;;;10.80;99.90;;;;;;5134730;27;20046;-58
2023/04/24 05:15:07;;;;;;;3.72;3.03;;;10.60;99.90;;;;;;5135140;27;20039;-58
2023/04/24 05:17:33;;;;;;;4.45;2.78;;;10.60;99.90;;;;;;5134922;27;20039;-57
2023/04/24 05:19:59;;;;;;;4.05;3.10;;;10.70;99.90;;;;;;5135050;27;20035;-58
2023/04/24 05:22:25;;;;;;;3.88;3.08;;;10.70;99.90;;;;;;5134617;27;20043;-58
2023/04/24 05:24:50;;;;;;;3.70;3.40;;;10.80;99.90;;;;;;5134775;27;20046;-58
2023/04/24 05:27:16;;;;;;;4.85;3.72;;;10.80;99.90;;;;;;5134530;27;20050;-57
2023/04/24 05:29:42;;;;;;;4.95;3.88;;;10.60;99.90;;;;;;5139064;27;20042;-57
2023/04/24 05:32:07;;;;;;;4.20;3.80;;;10.80;99.90;;;;;;5155401;27;20042;-57
2023/04/24 05:34:33;;;;;;;4.22;2.95;;;10.60;99.90;;;;;;5154988;27;20030;-57
2023/04/24 05:36:58;;;;;;;4.68;2.60;;;10.80;99.90;;;;;;5155487;27;20027;-57
2023/04/24 05:39:27;;;;;;;2.70;2.25;;;10.90;99.90;;;;;;5155662;27;20041;-57
2023/04/24 05:41:52;;;;;;;3.90;3.00;;;10.70;99.90;;;;;;5136758;27;20038;-58
2023/04/24 05:44:18;;;;;;;3.45;2.97;;;10.70;99.90;;;;;;5155541;27;20054;-58
2023/04/24 05:46:44;;;;;;;3.50;2.38;;;10.80;99.90;;;;;;5154969;27;20054;-58
2023/04/24 05:49:09;;;;;;;3.15;2.63;;;10.80;99.90;;;;;;5155225;27;20050;-58
2023/04/24 05:51:35;;;;;;;3.47;2.90;;;10.70;99.90;;;;;;5154999;27;20035;-58
2023/04/24 05:54:02;;;;;;;4.85;3.55;;;10.80;99.90;;;;;;5136090;27;20447;-58
2023/04/24 05:56:28;;;;;;;4.22;3.22;;;10.70;99.90;;;;;;5154853;27;20381;-58
2023/04/24 05:58:55;;;;;;;7.07;2.80;;;10.70;99.90;;;;;;5155240;27;20380;-58
2023/04/24 06:01:20;;;;;;;2.95;2.63;;;10.60;99.90;;;;;;5155149;27;20031;-58
2023/04/24 06:03:46;;;;;;;3.38;2.70;;;10.50;99.90;;;;;;5154900;27;20095;-57
2023/04/24 06:06:12;;;;;;;2.97;2.67;;;10.40;99.90;;;;;;5155058;27;20040;-57
2023/04/24 06:08:37;;;;;;;3.53;2.95;;;10.60;99.90;;;;;;5154900;27;20117;-57
2023/04/24 06:11:03;;;;;;;6.40;3.20;;;10.70;99.90;;;;;;5154889;27;20035;-57
2023/04/24 06:13:29;;;;;;;5.15;3.70;;;10.60;99.90;;;;;;5135821;27;20078;-57
2023/04/24 06:15:54;;;;;;;5.65;3.97;;;10.50;99.90;;;;;;5154840;27;20495;-57
2023/04/24 06:18:20;;;;;;;3.65;2.83;;;10.50;99.90;;;;;;5154761;27;20113;-57
2023/04/24 06:20:46;;;;;;;5.80;3.40;;;10.60;99.90;;;;;;5154531;27;20035;-57
2023/04/24 06:23:12;;;;;;;5.57;3.83;;;10.50;99.90;;;;;;5154416;27;20597;-57
2023/04/24 06:25:38;;;;;;;6.15;4.28;;;10.50;99.90;;;;;;5154742;27;20121;-57
2023/04/24 06:28:04;;;;;;;5.95;4.45;;;10.60;99.90;;;;;;5136259;27;20038;-57
2023/04/24 06:30:30;;;;;;;9.90;5.60;;;10.70;99.90;;;;;;5154848;27;20042;-57
2023/04/24 06:32:56;;;;;;;8.02;4.50;;;10.60;99.90;;;;;;5154412;27;20075;-57
2023/04/24 06:35:22;;;;;;;4.22;3.17;;;10.90;99.90;;;;;;5154177;27;20102;-57
2023/04/24 06:37:48;;;;;;;7.75;4.18;;;11.10;99.90;;;;;;5154112;27;20043;-57
2023/04/24 06:40:14;;;;;;;4.63;4.22;;;11.40;99.90;;;;;;5135476;27;20510;-58
2023/04/24 06:42:39;;;;;;;6.95;4.30;;;11.30;99.90;;;;;;5154590;27;20035;-58
2023/04/24 06:45:05;;;;;;;4.95;3.85;;;11.10;99.90;;;;;;5154377;27;20043;-58
2023/04/24 06:47:31;;;;;;;7.30;4.28;;;11.10;99.90;;;;;;5154525;27;20050;-59
2023/04/24 06:49:57;;;;;;;5.85;3.50;;;11.00;99.90;;;;;;5154819;27;20095;-58
2023/04/24 06:52:23;;;;;;;6.43;3.97;;;10.60;99.90;;;;;;5154391;27;20039;-58
2023/04/24 06:54:48;;;;;;;5.60;3.42;;;10.80;99.90;;;;;;5154382;27;20073;-58
2023/04/24 06:57:15;;;;;;;6.50;2.92;;;10.70;99.90;;;;;;5154671;27;20031;-58
2023/04/24 06:59:42;;;;;;;6.55;2.50;;;10.70;99.90;;;;;;5154736;27;20039;-58
2023/04/24 07:02:07;;;;;;;5.93;2.10;;;10.80;99.90;;;;;;5154646;27;20066;-58
2023/04/24 07:04:33;;;;;;;3.15;2.30;;;10.90;99.90;;;;;;5154546;27;20069;-58
2023/04/24 07:06:59;;;;;;;3.75;1.98;;;10.90;99.90;;;;;;5154611;27;20113;-58
2023/04/24 07:09:26;;;;;;;4.22;1.67;;;10.70;99.90;;;;;;5154406;27;20037;-58
2023/04/24 07:11:53;;;;;;;3.60;2.13;;;10.60;99.90;;;;;;5154402;27;20034;-58
2023/04/24 07:14:19;;;;;;;5.22;1.85;;;10.70;99.90;;;;;;5154197;27;20038;-58
2023/04/24 07:16:45;;;;;;;7.43;1.85;;;10.80;99.90;;;;;;5154186;27;20034;-58
2023/04/24 07:19:11;;;;;;;3.70;1.67;;;10.70;99.90;;;;;;5154356;27;20086;-58
2023/04/24 07:21:36;;;;;;;3.33;1.60;;;10.70;99.90;;;;;;5154189;27;20038;-58
2023/04/24 07:24:02;;;;;;;3.00;1.65;;;10.70;99.90;;;;;;5153842;27;20039;-58
2023/04/24 07:26:29;;;;;;;9.77;2.15;;;10.60;99.90;;;;;;5145199;27;20127;-59
2023/04/24 07:28:55;;;;;;;5.63;2.40;;;10.70;99.90;;;;;;5145652;27;20039;-58
2023/04/24 07:31:21;;;;;;;5.15;2.25;;;10.70;99.90;;;;;;5142558;27;20038;-59
2023/04/24 07:33:47;;;;;;;7.43;2.47;;;10.70;99.90;;;;;;5129019;27;20431;-59
2023/04/24 07:36:16;;;;;;;5.35;2.70;;;10.70;99.90;;;;;;5148532;27;20042;-58
2023/04/24 07:38:43;;;;;;;5.47;2.85;;;10.60;99.90;;;;;;5148343;27;20027;-59
2023/04/24 07:41:08;;;;;;;4.57;2.42;;;10.70;99.90;;;;;;5148209;27;20038;-58
2023/04/24 07:43:35;;;;;;;9.00;2.80;;;10.70;99.90;;;;;;5145688;27;20043;-59
2023/04/24 07:46:01;;;;;;;5.70;2.13;;;10.70;99.90;;;;;;5148548;27;20096;-58
2023/04/24 07:48:27;;;;;;;4.95;2.08;;;10.60;99.90;;;;;;5144864;27;20039;-58
2023/04/24 07:50:53;;;;;;;2.53;1.98;;;10.50;99.90;;;;;;5147099;27;20506;-58
2023/04/24 07:53:19;;;;;;;3.40;2.40;;;10.50;99.90;;;;;;5128121;27;20505;-58
2023/04/24 07:55:45;;;;;;;3.45;2.40;;;10.60;99.90;;;;;;5145131;27;20161;-59
2023/04/24 07:58:11;;;;;;;5.68;3.30;;;10.50;99.90;;;;;;5149773;27;20030;-59
2023/04/24 08:00:37;;;;;;;7.00;3.70;;;10.40;99.90;;;;;;5153812;27;20049;-58
2023/04/24 08:03:02;;;;;;;9.20;4.70;;;10.50;99.90;;;;;;5157897;27;20483;-58
2023/04/24 08:05:28;;;;;;;8.43;4.53;;;10.50;99.90;;;;;;5152801;27;20387;-58
2023/04/24 08:07:54;;;;;;;12.98;6.15;;;10.40;99.90;;;;;;5156957;27;20083;-58
2023/04/24 08:10:24;;;;;;;11.52;6.70;;;10.40;99.90;;;;;;5155199;27;20110;-58
2023/04/24 08:12:49;;;;;;;12.63;8.38;;;10.50;99.90;;;;;;5157253;27;20046;-58
2023/04/24 08:15:15;;;;;;;15.32;9.73;;;10.40;99.90;;;;;;5156856;27;20034;-58
2023/04/24 08:17:41;;;;;;;14.50;9.57;;;10.40;99.90;;;;;;5156930;27;20421;-58
2023/04/24 08:20:13;;;;;;;17.15;11.27;;;10.40;99.90;;;;;;5155759;27;20035;-58
2023/04/24 08:22:40;;;;;;;25.52;12.52;;;10.40;99.90;;;;;;5155216;27;20380;-58
2023/04/24 08:25:06;;;;;;;19.92;12.25;;;10.20;99.90;;;;;;5149974;27;20429;-58
2023/04/24 08:27:32;;;;;;;23.65;12.60;;;10.20;99.90;;;;;;5152013;27;20063;-58
2023/04/24 08:29:59;;;;;;;20.02;11.85;;;10.30;99.90;;;;;;5156932;27;20073;-58
2023/04/24 08:32:27;;;;;;;15.57;10.57;;;10.20;99.90;;;;;;5156448;27;20084;-58
2023/04/24 08:34:53;;;;;;;23.60;10.70;;;10.30;99.90;;;;;;5135434;27;20039;-57
2023/04/24 08:37:19;;;;;;;15.23;10.07;;;10.50;99.90;;;;;;5117145;27;20046;-59
2023/04/24 08:39:44;;;;;;;23.15;11.68;;;10.10;99.90;;;;;;5141236;27;20103;-58
2023/04/24 08:42:12;;;;;;;15.68;9.52;;;10.00;99.90;;;;;;5155609;27;20052;-57
2023/04/24 08:44:38;;;;;;;18.58;10.13;;;10.30;99.90;;;;;;5154840;27;20042;-57
2023/04/24 08:47:05;;;;;;;15.55;8.57;;;10.30;99.90;;;;;;5156112;27;20050;-57
2023/04/24 08:49:31;;;;;;;13.82;8.43;;;10.30;99.90;;;;;;5137586;27;20125;-57
2023/04/24 08:51:57;;;;;;;16.48;9.52;;;10.30;99.90;;;;;;5156623;27;20034;-63
2023/04/24 08:54:23;;;;;;;19.23;8.68;;;10.20;99.90;;;;;;5156243;27;20393;-57
2023/04/24 08:56:49;;;;;;;13.45;8.35;;;10.10;99.90;;;;;;5120612;27;20130;-58
2023/04/24 08:59:15;;;;;;;15.80;8.50;;;10.00;99.90;;;;;;5156317;27;20039;-57
2023/04/24 09:01:42;;;;;;;13.07;8.63;;;10.00;99.90;;;;;;5155983;27;20070;-58
2023/04/24 09:04:13;;;;;;;15.10;9.07;;;10.10;99.90;;;;;;5156068;27;20109;-57
2023/04/24 09:06:39;;;;;;;16.80;9.40;;;10.10;99.90;;;;;;5142616;27;20088;-57
2023/04/24 09:09:05;;;;;;;19.70;10.40;;;10.00;99.90;;;;;;5136487;27;20039;-58
2023/04/24 09:11:32;;;;;;;12.52;8.68;;;9.90;99.90;;;;;;5136913;27;20138;-58
2023/04/24 09:13:59;;;;;;;14.82;8.50;;;10.00;99.90;;;;;;5155586;27;20106;-58
2023/04/24 09:16:26;;;;;;;15.05;10.00;;;10.10;99.90;;;;;;5155295;27;20034;-58
2023/04/24 09:18:52;;;;;;;13.35;9.18;;;10.00;99.90;;;;;;5155536;27;20121;-57
2023/04/24 09:21:19;;;;;;;16.20;7.22;;;10.00;99.90;;;;;;5137080;27;20133;-58
2023/04/24 09:23:45;;;;;;;13.75;7.53;;;10.00;99.90;;;;;;5136915;27;20046;-58
2023/04/24 09:26:12;;;;;;;10.52;6.05;;;10.00;99.90;;;;;;5155900;27;20046;-58
2023/04/24 09:28:41;;;;;;;13.30;7.15;;;10.00;99.90;;;;;;5135792;27;20442;-58
2023/04/24 09:31:09;;;;;;;10.43;6.10;;;9.90;99.90;;;;;;5154921;27;20099;-58
2023/04/24 09:33:35;;;;;;;6.55;5.43;;;10.10;99.90;;;;;;5150790;27;20046;-57
2023/04/24 09:36:02;;;;;;;10.48;5.13;;;10.20;99.90;;;;;;5134457;27;20041;-57
2023/04/24 09:38:31;;;;;;;11.98;6.07;;;10.30;99.90;;;;;;5153843;27;20050;-58
2023/04/24 09:41:00;;;;;;;11.50;5.68;;;10.40;99.90;;;;;;5150448;27;20050;-58
2023/04/24 09:43:27;;;;;;;10.88;4.78;;;10.40;99.90;;;;;;5143598;27;20089;-57
2023/04/24 09:45:56;;;;;;;14.25;6.35;;;10.10;99.90;;;;;;5134665;27;20392;-57
2023/04/24 09:48:33;;;;;;;11.82;5.65;;;10.30;99.90;;;;;;5153186;27;20078;-58
2023/04/24 09:51:01;;;;;;;10.43;4.75;;;10.10;99.90;;;;;;5154497;27;20410;-58
2023/04/24 09:53:27;;;;;;;12.77;5.83;;;10.30;99.90;;;;;;5154951;27;20042;-57
2023/04/24 09:55:53;;;;;;;17.48;5.75;;;10.20;99.90;;;;;;5135989;27;20392;-57
2023/04/24 09:58:26;;;;;;;12.90;5.22;;;10.30;99.90;;;;;;5149487;27;20030;-57
2023/04/24 10:00:56;;;;;;;10.18;4.88;;;10.30;99.90;;;;;;5134352;27;20126;-58
2023/04/24 10:03:26;;;;;;;14.45;5.05;;;10.40;99.90;;;;;;5136478;27;20038;-58
2023/04/24 10:05:53;;;;;;;9.07;3.83;;;10.60;99.90;;;;;;5149782;27;20031;-58
2023/04/24 10:08:20;;;;;;;6.70;2.72;;;10.50;99.90;;;;;;5154866;27;20118;-58
2023/04/24 10:10:46;;;;;;;5.57;3.45;;;10.70;99.90;;;;;;5142313;27;20045;-58
2023/04/24 10:13:14;;;;;;;5.63;3.38;;;10.70;99.90;;;;;;5136261;27;20046;-58
2023/04/24 10:15:41;;;;;;;5.97;2.80;;;10.80;99.90;;;;;;5153711;27;20547;-57
2023/04/24 10:18:08;;;;;;;6.82;2.63;;;10.90;99.90;;;;;;5152736;27;20027;-57
2023/04/24 10:20:36;;;;;;;9.10;2.92;;;10.80;99.90;;;;;;5151519;27;20045;-58
2023/04/24 10:23:03;;;;;;;6.50;2.80;;;10.80;99.90;;;;;;5151473;27;20039;-57
2023/04/24 10:25:31;;;;;;;13.15;4.90;;;10.80;99.90;;;;;;5154088;27;20393;-58
2023/04/24 10:27:59;;;;;;;10.63;4.28;;;10.90;99.90;;;;;;5132932;27;20042;-57
2023/04/24 10:30:29;;;;;;;9.32;3.80;;;11.00;99.90;;;;;;5146705;27;20071;-57
2023/04/24 10:32:55;;;;;;;9.38;3.05;;;10.90;99.90;;;;;;5133155;27;20041;-58
2023/04/24 10:35:24;;;;;;;8.38;2.85;;;11.10;99.90;;;;;;5133587;27;20039;-58
2023/04/24 10:37:55;;;;;;;12.68;4.85;;;11.10;99.90;;;;;;5150823;27;20042;-58
2023/04/24 10:40:35;;;;;;;13.25;4.07;;;11.10;99.90;;;;;;5153636;27;20460;-57
2023/04/24 10:43:10;;;;;;;10.88;3.40;;;11.20;99.90;;;;;;5154271;27;20358;-58
2023/04/24 10:45:37;;;;;;;9.93;2.60;;;11.10;99.90;;;;;;5154344;27;20057;-58
2023/04/24 10:48:07;;;;;;;14.32;3.17;;;11.20;99.90;;;;;;5135513;27;20560;-58
2023/04/24 10:50:51;;;;;;;8.13;4.13;;;11.20;99.90;;;;;;5154393;27;20038;-58
2023/04/24 10:53:19;;;;;;;8.02;2.45;;;11.20;99.90;;;;;;5153783;27;20049;-58
2023/04/24 10:56:03;;;;;;;9.30;3.05;;;11.10;99.90;;;;;;5129690;27;20104;-57
2023/04/24 10:58:44;;;;;;;9.60;3.92;;;11.10;99.90;;;;;;5148474;27;20027;-58
2023/04/24 11:01:27;;;;;;;8.18;2.70;;;11.20;99.90;;;;;;5144210;27;20046;-57
2023/04/24 11:04:03;;;;;;;14.35;2.47;;;11.00;99.90;;;;;;5143727;27;20481;-58
2023/04/24 11:06:35;;;;;;;8.93;2.80;;;10.90;99.90;;;;;;5134162;27;20039;-57
2023/04/24 11:09:09;;;;;;;7.22;2.45;;;10.70;99.90;;;;;;5137542;27;20073;-58
2023/04/24 11:11:37;;;;;;;8.57;2.83;;;10.70;99.90;;;;;;5124150;27;20062;-57
2023/04/24 11:14:06;;;;;;;10.27;2.55;;;10.70;99.90;;;;;;5158053;27;20066;-58
2023/04/24 11:16:33;;;;;;;6.68;2.40;;;10.70;99.90;;;;;;5158243;27;20113;-58
2023/04/24 11:19:08;;;;;;;9.85;2.80;;;10.60;99.90;;;;;;5158182;27;20039;-58
2023/04/24 11:21:56;;;;;;;6.40;1.88;;;10.60;99.90;;;;;;5157889;27;20039;-58
2023/04/24 11:24:27;;;;;;;10.32;2.20;;;10.70;99.90;;;;;;5157950;27;20038;-58
2023/04/24 11:26:58;;;;;;;9.45;2.40;;;10.90;99.90;;;;;;5139932;27;20153;-58
2023/04/24 11:29:38;;;;;;;8.57;1.70;;;11.00;99.90;;;;;;5158208;27;20042;-58
2023/04/24 11:32:19;;;;;;;6.63;2.10;;;10.90;99.90;;;;;;5148877;27;20477;-58
2023/04/24 11:34:50;;;;;;;6.80;2.60;;;10.80;99.90;;;;;;5139948;27;20489;-58
2023/04/24 11:37:16;;;;;;;8.50;2.47;;;10.90;99.90;;;;;;5139073;27;20034;-59
2023/04/24 11:39:42;;;;;;;6.82;2.63;;;10.80;99.90;;;;;;5157688;27;20034;-58
2023/04/24 11:42:09;;;;;;;7.40;1.85;;;10.90;99.90;;;;;;5157513;27;20035;-57
2023/04/24 11:44:37;;;;;;;8.25;2.00;;;10.90;99.90;;;;;;5157511;27;20507;-58
2023/04/24 11:47:07;;;;;;;7.78;1.63;;;10.90;99.90;;;;;;5138949;27;20074;-58
2023/04/24 11:49:33;;;;;;;5.22;1.40;;;10.80;99.90;;;;;;5157655;27;20049;-59
2023/04/24 11:52:02;;;;;;;6.13;1.35;;;10.90;99.90;;;;;;5138848;27;20046;-57
2023/04/24 11:54:28;;;;;;;10.13;2.15;;;10.80;99.90;;;;;;5136710;27;20453;-58
2023/04/24 11:56:54;;;;;;;5.53;1.70;;;10.90;99.90;;;;;;5143799;27;20069;-59
2023/04/24 11:59:19;;;;;;;7.28;1.65;;;10.90;99.90;;;;;;5157154;27;20030;-58
2023/04/24 12:01:49;;;;;;;6.00;2.05;;;10.80;99.90;;;;;;5136867;27;20063;-57
2023/04/24 12:04:16;;;;;;;17.05;2.80;;;10.70;99.90;;;;;;5136448;27;20429;-58
2023/04/24 12:07:04;;;;;;;6.88;1.88;;;10.50;99.90;;;;;;5136192;27;20035;-57
2023/04/24 12:09:57;;;;;;;11.82;1.83;;;10.50;99.90;;;;;;5127108;27;20071;-57
2023/04/24 12:12:26;;;;;;;7.25;1.95;;;10.40;99.90;;;;;;5149719;27;20051;-58
2023/04/24 12:14:58;;;;;;;4.32;2.05;;;10.30;99.90;;;;;;5136688;27;20110;-57
2023/04/24 12:17:30;;;;;;;3.28;1.42;;;10.40;99.90;;;;;;5135588;27;20031;-58
2023/04/24 12:19:59;;;;;;;4.53;1.35;;;10.40;99.90;;;;;;5136397;27;20058;-57
2023/04/24 12:22:25;;;;;;;5.93;1.73;;;10.50;99.90;;;;;;5136188;27;20042;-58
2023/04/24 12:24:58;;;;;;;3.78;1.60;;;10.50;99.90;;;;;;5136136;27;20071;-58
2023/04/24 12:27:24;;;;;;;2.80;1.10;;;10.60;99.90;;;;;;5134621;27;20039;-58
2023/04/24 12:29:57;;;;;;;2.22;1.45;;;10.70;99.90;;;;;;5136064;27;20473;-57
2023/04/24 12:32:25;;;;;;;3.13;1.13;;;10.90;99.90;;;;;;5136156;27;20035;-58
2023/04/24 12:34:51;;;;;;;2.70;1.17;;;10.90;99.90;;;;;;5134918;27;20099;-58
2023/04/24 12:37:17;;;;;;;3.78;0.90;;;10.90;99.90;;;;;;5135994;27;20393;-57
2023/04/24 12:40:00;;;;;;;4.68;0.90;;;11.00;99.90;;;;;;5135284;27;20035;-57
2023/04/24 12:42:27;;;;;;;8.25;1.80;;;11.00;99.90;;;;;;5135503;27;20035;-57